Time;durP1;ratioP1;P1;durP2;ratioP2;P2;SDS_P1;SDS_P2;PMS_P1;PMS_P2;Temp;Humidity;BMP_temperature;BMP_pressure;BME280_temperature;BME280_humidity;BME280_pressure;Samples;Min_cycle;Max_cycle;Signal;HPM_P1;HPM_P2
2022/11/03 00:01:10;;;;;;;22.85;8.18;;;;;;;9.24;100.00;100160.56;12214355;19;20010;-81
2022/11/03 00:09:32;;;;;;;9.07;2.60;;;;;;;9.22;100.00;100157.19;12192774;19;20538;-82
2022/11/03 00:13:36;;;;;;;9.87;2.37;;;;;;;9.20;100.00;100162.13;12213792;19;20010;-83
2022/11/03 00:17:37;;;;;;;;;;;;;;;9.17;100.00;100166.16;12226977;19;20150;-82
2022/11/03 00:21:39;;;;;;;8.50;2.60;;;;;;;9.14;100.00;100155.63;12272560;19;19955;-83
2022/11/03 00:25:40;;;;;;;7.85;2.58;;;;;;;9.12;100.00;100158.59;12267769;19;20015;-83
2022/11/03 00:29:42;;;;;;;11.80;3.08;;;;;;;9.12;100.00;100153.09;12211067;19;20003;-82
2022/11/03 00:33:44;;;;;;;13.38;3.22;;;;;;;9.12;100.00;100147.59;12210707;19;20490;-84
2022/11/03 00:37:46;;;;;;;12.90;3.13;;;;;;;9.08;100.00;100138.16;12212457;19;20006;-83
2022/11/03 00:41:47;;;;;;;12.35;3.40;;;;;;;9.05;100.00;100133.13;12189049;19;19998;-82
2022/11/03 00:45:51;;;;;;;11.95;3.38;;;;;;;9.02;100.00;100119.00;12213614;19;20014;-82
2022/11/03 00:49:52;;;;;;;11.10;3.42;;;;;;;8.99;100.00;100114.81;12211606;19;20010;-82
2022/11/03 00:53:56;;;;;;;9.35;3.08;;;;;;;8.96;100.00;100104.28;12184973;19;20054;-83
2022/11/03 00:57:58;;;;;;;7.35;3.05;;;;;;;8.90;100.00;100094.22;12208890;19;20531;-83
2022/11/03 01:01:59;;;;;;;9.55;3.13;;;;;;;8.88;100.00;100093.59;12208576;19;20011;-83
2022/11/03 01:10:25;;;;;;;15.77;3.03;;;;;;;8.83;100.00;100077.81;12205552;19;20007;-83
2022/11/03 01:14:49;;;;;;;11.95;3.22;;;;;;;8.81;100.00;100090.94;12208315;19;20034;-82
2022/11/03 01:18:51;;;;;;;11.65;3.05;;;;;;;8.80;100.00;100082.91;12184009;19;20011;-83
2022/11/03 01:22:52;;;;;;;12.65;3.45;;;;;;;8.80;100.00;100088.41;12207003;19;20039;-82
2022/11/03 01:26:54;;;;;;;12.77;3.30;;;;;;;8.78;100.00;100085.91;12186903;19;20078;-83
2022/11/03 01:31:02;;;;;;;9.82;3.42;;;;;;;8.79;100.00;100082.09;12205777;19;20034;-81
2022/11/03 01:35:04;;;;;;;8.30;4.45;;;;;;;8.79;100.00;100078.50;12206996;19;20034;-84
2022/11/03 01:39:05;;;;;;;9.77;3.08;;;;;;;8.81;100.00;100079.13;12186506;19;20540;-83
2022/11/03 01:43:23;;;;;;;12.63;3.38;;;;;;;8.80;100.00;100071.94;12208300;19;21529;-85
2022/11/03 01:47:30;;;;;;;8.88;3.40;;;;;;;8.79;100.00;100070.25;12210814;19;20468;-83
2022/11/03 01:51:35;;;;;;;9.65;3.80;;;;;;;8.80;100.00;100060.94;12187085;19;20393;-83
2022/11/03 01:55:38;;;;;;;16.48;3.85;;;;;;;8.79;100.00;100059.28;12206354;19;20010;-82
2022/11/03 01:59:42;;;;;;;13.77;4.00;;;;;;;8.78;100.00;100058.44;12186174;19;20034;-83
2022/11/03 02:03:50;;;;;;;18.83;4.45;;;;;;;8.78;100.00;100057.59;12202881;19;20030;-83
2022/11/03 02:07:58;;;;;;;13.10;4.20;;;;;;;8.75;100.00;100050.66;12209259;19;20188;-83
2022/11/03 02:12:05;;;;;;;12.20;3.58;;;;;;;8.75;100.00;100047.06;12184649;19;20014;-83
2022/11/03 02:16:07;;;;;;;15.30;4.03;;;;;;;8.74;100.00;100045.38;12207072;19;20018;-83
2022/11/03 02:20:12;;;;;;;9.38;3.67;;;;;;;8.74;100.00;100034.41;12210644;19;20011;-84
2022/11/03 02:24:22;;;;;;;15.38;4.75;;;;;;;8.72;100.00;100014.56;12199145;19;20010;-83
2022/11/03 02:28:28;;;;;;;9.57;3.78;;;;;;;8.66;100.00;100010.84;12220244;19;20023;-83
2022/11/03 02:32:47;;;;;;;10.48;3.92;;;;;;;8.62;100.00;100004.13;12218552;19;20010;-82
2022/11/03 02:37:03;;;;;;;15.95;5.03;;;;;;;8.58;100.00;99998.25;12197802;19;20014;-84
2022/11/03 02:41:08;;;;;;;12.65;4.20;;;;;;;8.56;100.00;99989.41;12217772;19;20011;-82
2022/11/03 02:45:13;;;;;;;11.25;4.25;;;;;;;8.51;100.00;99983.78;12197059;19;20035;-83
2022/11/03 02:49:20;;;;;;;8.40;3.83;;;;;;;8.47;100.00;99974.31;12220226;19;20006;-84
2022/11/03 02:53:21;;;;;;;11.73;4.60;;;;;;;8.44;100.00;99966.53;12214753;19;20011;-81
2022/11/03 02:57:29;;;;;;;7.43;4.20;;;;;;;8.41;100.00;99961.53;12199840;19;20007;-84
2022/11/03 03:01:47;;;;;;;17.40;3.67;;;;;;;8.29;100.00;99960.59;12253218;19;20014;-81
2022/11/03 03:05:53;;;;;;;12.00;3.85;;;;;;;8.15;100.00;99977.25;12246192;19;19998;-81
2022/11/03 03:10:14;;;;;;;9.60;3.83;;;;;;;8.04;100.00;99953.31;12248659;19;20078;-84
2022/11/03 03:14:37;;;;;;;15.48;4.00;;;;;;;8.01;100.00;99942.81;12222963;19;20039;-84
2022/11/03 03:18:47;;;;;;;13.00;4.20;;;;;;;7.98;100.00;99933.13;12199862;19;20818;-85
2022/11/03 03:23:05;;;;;;;9.50;3.15;;;;;;;8.00;100.00;99935.63;12218966;19;20010;-83
2022/11/03 03:27:13;;;;;;;12.30;3.47;;;;;;;7.99;100.00;99945.75;12197287;19;20046;-84
2022/11/03 03:31:19;;;;;;;8.57;3.33;;;;;;;7.89;100.00;99937.25;12217550;19;20030;-83
2022/11/03 03:35:25;;;;;;;8.65;2.92;;;;;;;7.83;100.00;99937.31;12216206;19;20031;-84
2022/11/03 03:39:31;;;;;;;10.75;3.30;;;;;;;7.80;100.00;99924.91;12196505;19;20010;-85
2022/11/03 03:43:33;;;;;;;9.38;2.83;;;;;;;7.80;100.00;99924.06;12216930;19;20014;-83
2022/11/03 03:47:35;;;;;;;13.02;3.08;;;;;;;7.81;100.00;99925.72;12208070;19;20010;-85
2022/11/03 03:51:38;;;;;;;9.20;2.97;;;;;;;7.78;100.00;99907.81;12228066;19;20476;-84
2022/11/03 03:55:42;;;;;;;9.40;2.67;;;;;;;7.75;100.00;99906.38;12220100;19;20019;-84
2022/11/03 03:59:44;;;;;;;13.05;3.42;;;;;;;7.74;100.00;99912.09;12191652;19;20070;-84
2022/11/03 04:03:46;;;;;;;12.27;3.40;;;;;;;7.74;100.00;99909.34;12211628;19;20010;-82
2022/11/03 04:07:47;;;;;;;13.18;4.07;;;;;;;7.71;100.00;99901.59;12216768;19;20007;-83
2022/11/03 04:24:51;;;;;;;11.80;4.22;;;;;;;7.58;100.00;99898.97;12192108;19;20003;-83
2022/11/03 04:28:53;;;;;;;10.23;3.50;;;;;;;7.54;100.00;99890.38;12210667;19;20007;-83
2022/11/03 04:32:54;;;;;;;12.60;3.83;;;;;;;7.56;100.00;99891.00;12188028;19;20010;-84
2022/11/03 04:36:56;;;;;;;13.27;4.00;;;;;;;7.57;100.00;99887.19;12210888;19;20002;-83
2022/11/03 04:40:57;;;;;;;10.50;3.95;;;;;;;7.59;100.00;99885.06;12211219;19;20038;-83
2022/11/03 04:45:01;;;;;;;10.82;3.95;;;;;;;7.57;100.00;99883.59;12190720;19;20014;-84
2022/11/03 04:49:04;;;;;;;12.18;3.95;;;;;;;7.57;100.00;99869.91;12214446;19;20159;-82
2022/11/03 04:53:12;;;;;;;12.68;4.30;;;;;;;7.54;100.00;99860.22;12210815;19;20380;-83
2022/11/03 04:57:16;;;;;;;13.10;4.45;;;;;;;7.55;100.00;99853.66;12202022;19;19998;-82
2022/11/03 05:01:21;;;;;;;14.50;4.30;;;;;;;7.53;100.00;99853.91;12219860;19;20015;-82
2022/11/03 05:05:28;;;;;;;10.77;4.43;;;;;;;7.47;100.00;99853.97;12210998;19;20006;-83
2022/11/03 05:09:30;;;;;;;12.50;4.03;;;;;;;7.37;100.00;99851.75;12188143;19;20352;-83
2022/11/03 05:13:33;;;;;;;12.85;4.28;;;;;;;7.30;100.00;99857.31;12207394;19;20006;-84
2022/11/03 05:17:36;;;;;;;13.30;4.72;;;;;;;7.24;100.00;99844.53;12210389;19;20035;-83
2022/11/03 05:21:39;;;;;;;15.88;5.35;;;;;;;7.24;100.00;99850.00;12189328;19;20007;-84
2022/11/03 05:25:43;;;;;;;16.35;5.18;;;;;;;7.20;100.00;99840.56;12255304;19;20041;-81
2022/11/03 05:29:46;;;;;;;13.43;4.32;;;;;;;7.17;100.00;99840.16;12249003;19;20334;-82
2022/11/03 05:33:51;;;;;;;11.43;3.88;;;;;;;7.15;100.00;99826.69;12250554;19;20011;-80
2022/11/03 05:37:52;;;;;;;11.57;4.10;;;;;;;7.16;100.00;99820.16;12209552;19;20006;-82
2022/11/03 05:41:57;;;;;;;11.00;4.03;;;;;;;7.19;100.00;99813.38;12192580;19;20021;-81
2022/11/03 05:46:01;;;;;;;9.32;3.80;;;;;;;7.21;100.00;99816.75;12204710;19;20567;-82
2022/11/03 05:50:17;;;;;;;14.80;3.95;;;;;;;7.21;100.00;99816.75;12180006;19;20011;-81
2022/11/03 05:54:25;;;;;;;11.70;5.18;;;;;;;7.22;100.00;99815.66;12192533;19;20018;-81
2022/11/03 05:58:37;;;;;;;14.80;5.18;;;;;;;7.23;100.00;99800.91;12222715;19;20006;-81
2022/11/03 06:02:42;;;;;;;15.80;4.77;;;;;;;7.24;100.00;99797.94;12194207;19;20010;-81
2022/11/03 06:07:07;;;;;;;13.13;3.85;;;;;;;7.30;100.00;99783.31;12222758;19;20042;-81
2022/11/03 06:11:25;;;;;;;12.27;4.72;;;;;;;7.38;100.00;99775.84;12224519;19;20793;-81
2022/11/03 06:15:36;;;;;;;18.85;4.97;;;;;;;7.43;100.00;99762.28;12201781;19;20027;-81
2022/11/03 06:19:43;;;;;;;9.30;4.40;;;;;;;7.43;100.00;99754.88;12226755;19;20081;-79
2022/11/03 06:23:45;;;;;;;10.73;4.70;;;;;;;7.44;100.00;99753.00;12205613;19;20460;-80
2022/11/03 06:27:48;;;;;;;;;;;;;;;7.44;100.00;99750.25;12226447;19;20107;-81
2022/11/03 06:31:54;;;;;;;11.10;4.20;;;;;;;7.47;100.00;99745.16;12216089;19;20273;-81
2022/11/03 06:36:14;;;;;;;11.10;4.10;;;;;;;7.49;100.00;99744.91;12198447;19;20010;-81
2022/11/03 06:40:16;;;;;;;10.30;4.20;;;;;;;7.53;100.00;99746.13;12221575;19;20041;-81
2022/11/03 06:44:25;;;;;;;11.05;4.07;;;;;;;7.58;100.00;99748.16;12222810;19;20019;-83
2022/11/03 06:48:28;;;;;;;11.20;4.47;;;;;;;7.65;100.00;99744.28;12203550;19;20039;-81
2022/11/03 06:52:32;;;;;;;;;;;;;;;7.71;100.00;99742.50;12218958;19;20490;-80
2022/11/03 06:56:36;;;;;;;16.00;4.50;;;;;;;7.84;100.00;99739.56;12223276;19;19919;-80
2022/11/03 07:00:39;;;;;;;14.77;4.50;;;;;;;7.96;100.00;99742.34;12202676;19;20123;-80
2022/11/03 07:04:45;;;;;;;9.40;3.58;;;;;;;8.07;100.00;99736.03;12218960;19;20014;-79
2022/11/03 07:08:51;;;;;;;9.25;3.58;;;;;;;8.14;100.00;99739.50;12197781;19;20019;-81
2022/11/03 07:12:55;;;;;;;12.10;4.03;;;;;;;8.20;100.00;99737.72;12220999;19;20011;-80
2022/11/03 07:17:01;;;;;;;11.55;4.13;;;;;;;8.32;100.00;99733.09;12226421;19;20037;-81
2022/11/03 07:21:34;;;;;;;10.68;3.67;;;;;;;8.47;100.00;99726.34;12199927;19;20095;-81
2022/11/03 07:25:36;;;;;;;8.20;4.10;;;;;;;8.61;100.00;99706.63;12228025;19;20003;-82
2022/11/03 07:29:38;;;;;;;12.52;5.05;;;;;;;8.74;100.00;99693.72;12196265;19;20658;-80
2022/11/03 07:33:47;;;;;;;17.45;5.85;;;;;;;8.84;100.00;99691.22;12219121;19;20007;-81
2022/11/03 07:37:51;;;;;;;15.73;6.25;;;;;;;8.93;100.00;99680.69;12221720;19;20002;-80
2022/11/03 07:41:53;;;;;;;16.55;5.97;;;;;;;8.95;100.00;99668.34;12197426;19;20006;-81
2022/11/03 07:45:57;;;;;;;14.48;6.20;;;;;;;9.07;100.00;99666.44;12218382;19;20098;-81
2022/11/03 07:49:59;;;;;;;15.68;5.45;;;;;;;9.17;100.00;99662.22;12216411;19;20348;-80
2022/11/03 07:54:01;;;;;;;13.18;5.85;;;;;;;9.25;100.00;99667.31;12193538;19;20085;-80
2022/11/03 07:58:19;;;;;;;23.58;5.85;;;;;;;9.35;100.00;99657.34;12218079;19;20392;-80
2022/11/03 08:02:23;;;;;;;13.02;4.47;;;;;;;9.47;100.00;99654.56;12222923;19;20016;-81
2022/11/03 08:06:31;;;;;;;13.48;4.80;;;;;;;9.53;100.00;99639.81;12202925;19;20097;-81
2022/11/03 08:10:39;;;;;;;10.15;4.45;;;;;;;9.64;100.00;99626.22;12224445;19;20457;-80
2022/11/03 08:14:44;;;;;;;10.70;4.30;;;;;;;9.82;100.00;99623.25;12202319;19;20028;-81
2022/11/03 08:18:47;;;;;;;11.95;3.78;;;;;;;9.99;100.00;99610.34;12223740;19;20077;-81
2022/11/03 08:22:48;;;;;;;7.95;3.25;;;;;;;10.19;100.00;99597.97;12221088;19;20006;-81
2022/11/03 08:27:10;;;;;;;11.50;3.40;;;;;;;10.30;100.00;99587.97;12202626;19;20049;-81
2022/11/03 08:31:13;;;;;;;10.48;3.58;;;;;;;10.31;100.00;99601.47;12220545;19;20033;-80
2022/11/03 08:35:15;;;;;;;10.68;3.70;;;;;;;10.30;100.00;99588.78;12222966;19;20014;-81
2022/11/03 08:39:18;;;;;;;;;;;;;;;10.29;100.00;99586.28;12200373;19;20484;-81
2022/11/03 08:43:21;;;;;;;7.63;4.50;;;;;;;10.35;100.00;99571.50;12224532;19;19926;-80
2022/11/03 08:47:24;;;;;;;11.68;8.07;;;;;;;10.43;100.00;99562.81;12221251;19;20038;-82
2022/11/03 08:51:28;;;;;;;12.93;6.38;;;;;;;10.56;100.00;99570.72;12194399;19;20021;-80
2022/11/03 08:55:33;;;;;;;12.70;4.80;;;;;;;10.74;100.00;99575.06;12214510;19;20014;-81
2022/11/03 08:59:35;;;;;;;10.35;4.60;;;;;;;11.00;100.00;99559.63;12217491;19;20014;-80
2022/11/03 09:03:38;;;;;;;13.23;4.60;;;;;;;11.21;100.00;99574.47;12190167;19;20006;-80
2022/11/03 09:07:41;;;;;;;15.57;5.57;;;;;;;11.47;100.00;99569.22;12217508;19;20149;-82
2022/11/03 09:12:03;;;;;;;12.77;5.55;;;;;;;11.61;100.00;99576.81;12192299;19;20018;-81
2022/11/03 09:16:05;;;;;;;16.45;7.05;;;;;;;11.84;100.00;99591.38;12215802;19;20007;-80
2022/11/03 09:20:08;;;;;;;12.70;5.70;;;;;;;12.14;100.00;99589.97;12216640;19;20022;-81
2022/11/03 09:24:10;;;;;;;18.38;6.82;;;;;;;12.36;100.00;99576.00;12194827;19;20354;-81
2022/11/03 09:28:12;;;;;;;17.35;5.88;;;;;;;12.58;100.00;99562.84;12214692;19;20471;-80
2022/11/03 09:32:15;;;;;;;21.27;7.35;;;;;;;12.65;100.00;99557.09;12212951;19;20018;-81
2022/11/03 09:36:23;;;;;;;13.43;5.90;;;;;;;12.54;100.00;99556.19;12190873;19;20021;-81
2022/11/03 09:40:25;;;;;;;13.45;5.60;;;;;;;12.53;100.00;99554.53;12211811;19;20015;-81
2022/11/03 09:44:27;;;;;;;14.85;6.38;;;;;;;12.54;100.00;99531.31;12214224;19;20011;-82
2022/11/03 09:48:29;;;;;;;12.02;6.13;;;;;;;12.60;100.00;99524.72;12190384;19;20035;-81
2022/11/03 09:52:32;;;;;;;13.57;5.60;;;;;;;12.71;100.00;99529.19;12213812;19;20011;-81
2022/11/03 09:56:34;;;;;;;;;;;;;;;12.82;100.00;99504.31;12213384;19;20022;-82
2022/11/03 10:00:36;;;;;;;11.18;5.43;;;;;;;12.99;100.00;99491.94;12190722;19;19922;-81
2022/11/03 10:04:38;;;;;;;14.05;5.78;;;;;;;13.07;100.00;99490.56;12206468;19;20018;-81
2022/11/03 10:08:43;;;;;;;13.60;5.22;;;;;;;13.11;100.00;99474.25;12192413;19;20010;-80
2022/11/03 10:12:47;;;;;;;10.88;5.40;;;;;;;13.16;100.00;99460.44;12213380;19;20051;-81
2022/11/03 10:16:59;;;;;;;15.30;5.45;;;;;;;13.14;100.00;99435.78;12213813;19;20021;-81
2022/11/03 10:21:05;;;;;;;13.57;5.45;;;;;;;13.21;100.00;99446.59;12194087;19;20018;-81
2022/11/03 10:25:36;;;;;;;14.02;5.30;;;;;;;13.33;100.00;99446.38;12212831;19;20003;-81
2022/11/03 10:29:39;;;;;;;17.95;5.55;;;;;;;13.53;100.00;99418.66;12231000;19;20023;-81
2022/11/03 10:33:53;;;;;;;16.05;5.18;;;;;;;13.77;100.00;99412.50;12252052;19;20026;-80
2022/11/03 10:37:55;;;;;;;15.43;5.10;;;;;;;13.81;100.00;99406.16;12223331;19;20014;-82
2022/11/03 10:41:58;;;;;;;11.43;5.00;;;;;;;13.89;100.00;99405.59;12201651;19;20027;-82
2022/11/03 10:46:16;;;;;;;13.95;4.78;;;;;;;14.08;100.00;99405.78;12279851;19;20006;-80
2022/11/03 10:50:39;;;;;;;15.50;5.88;;;;;;;14.22;100.00;99410.69;12250089;19;20019;-81
2022/11/03 10:54:43;;;;;;;16.00;4.75;;;;;;;14.22;100.00;99400.47;12222217;19;20341;-82
2022/11/03 10:58:45;;;;;;;12.75;4.78;;;;;;;14.25;100.00;99394.34;12221304;19;20091;-81
2022/11/03 11:02:47;;;;;;;10.18;4.47;;;;;;;14.30;100.00;99385.19;12203948;19;20564;-80
2022/11/03 11:06:51;;;;;;;11.63;4.57;;;;;;;14.42;100.00;99369.03;12217507;19;20087;-82
2022/11/03 11:10:53;;;;;;;10.10;4.20;;;;;;;14.45;99.44;99353.78;12220704;19;20011;-80
2022/11/03 11:14:56;;;;;;;13.07;4.53;;;;;;;14.49;98.50;99339.06;12197576;19;20078;-81
2022/11/03 11:18:58;;;;;;;;;;;;;;;14.55;98.83;99334.34;12222368;19;20116;-81
2022/11/03 11:23:32;;;;;;;12.60;4.43;;;;;;;14.63;97.49;99313.47;12219339;19;20259;-81
2022/11/03 11:27:35;;;;;;;11.75;4.60;;;;;;;14.66;96.25;99310.13;12197678;19;20003;-82
2022/11/03 11:31:38;;;;;;;10.07;4.20;;;;;;;14.65;95.34;99309.31;12220516;19;20034;-82
2022/11/03 11:35:46;;;;;;;13.65;4.38;;;;;;;14.72;95.25;99303.44;12197271;19;20708;-82
2022/11/03 11:39:48;;;;;;;12.32;3.88;;;;;;;14.78;94.53;99288.41;12220071;19;20015;-82
2022/11/03 11:43:50;;;;;;;10.93;4.22;;;;;;;14.88;95.25;99273.63;12217425;19;20006;-82
2022/11/03 11:47:51;;;;;;;9.50;4.65;;;;;;;14.93;94.74;99279.97;12193727;19;20007;-82
2022/11/03 11:52:00;;;;;;;12.18;5.10;;;;;;;14.88;94.79;99293.88;12228749;19;20027;-81
2022/11/03 11:56:04;;;;;;;10.05;4.97;;;;;;;14.86;94.33;99298.06;12248861;19;20009;-82
2022/11/03 12:00:17;;;;;;;12.40;5.30;;;;;;;14.71;92.08;99302.59;12225097;19;20018;-81
2022/11/03 12:04:29;;;;;;;10.88;5.65;;;;;;;14.63;93.59;99303.22;12248917;19;20006;-81
2022/11/03 12:08:32;;;;;;;11.83;4.83;;;;;;;14.72;93.56;99295.97;12238046;19;20045;-81
2022/11/03 12:12:37;;;;;;;12.40;5.35;;;;;;;14.73;92.73;99277.38;12219603;19;20804;-81
2022/11/03 12:16:41;;;;;;;11.43;5.05;;;;;;;14.74;93.57;99262.38;12237332;19;20006;-82
2022/11/03 12:20:46;;;;;;;12.65;4.75;;;;;;;14.69;94.32;99243.81;12219670;19;20106;-83
2022/11/03 12:24:55;;;;;;;14.05;5.18;;;;;;;14.49;93.62;99221.81;12229948;19;20005;-80
2022/11/03 12:28:58;;;;;;;12.65;4.35;;;;;;;14.38;94.23;99215.50;12235957;19;20034;-81
2022/11/03 12:33:01;;;;;;;14.00;5.40;;;;;;;14.36;95.35;99203.88;12233552;19;20456;-81
2022/11/03 12:37:05;;;;;;;11.32;4.55;;;;;;;14.46;95.44;99194.66;12228850;19;20112;-80
2022/11/03 12:41:23;;;;;;;11.03;4.27;;;;;;;14.66;96.03;99171.47;12225580;19;20022;-81
2022/11/03 12:45:25;;;;;;;10.80;5.38;;;;;;;14.84;95.33;99190.16;12197152;19;20007;-81
2022/11/03 12:49:34;;;;;;;11.43;4.60;;;;;;;15.08;94.48;99184.66;12217402;19;20074;-80
2022/11/03 12:53:35;;;;;;;13.00;4.80;;;;;;;15.11;91.97;99177.66;12216736;19;20010;-83
2022/11/03 12:57:37;;;;;;;8.43;4.00;;;;;;;15.28;93.08;99166.91;12200181;19;20007;-82
2022/11/03 13:01:43;;;;;;;12.15;5.25;;;;;;;15.41;93.01;99145.94;12219812;19;20497;-82
2022/11/03 13:05:48;;;;;;;12.52;5.38;;;;;;;15.45;93.04;99138.66;12196225;19;20007;-85
2022/11/03 13:09:49;;;;;;;9.73;4.00;;;;;;;15.48;92.69;99138.88;12215719;19;20392;-80
2022/11/03 13:13:52;;;;;;;7.40;3.63;;;;;;;15.42;91.48;99128.16;12218259;19;20014;-82
2022/11/03 13:17:54;;;;;;;8.00;3.92;;;;;;;15.39;90.91;99123.19;12196924;19;20300;-84
2022/11/03 13:22:16;;;;;;;9.90;3.77;;;;;;;15.41;91.07;99113.44;12217943;19;20046;-83
2022/11/03 13:26:18;;;;;;;9.65;3.90;;;;;;;15.38;90.82;99102.94;12219145;19;20002;-84
2022/11/03 13:30:25;;;;;;;9.85;3.55;;;;;;;15.30;90.88;99075.03;12198688;19;20021;-83
2022/11/03 13:34:27;;;;;;;10.43;4.00;;;;;;;15.30;91.82;99061.97;12216644;19;20010;-84
2022/11/03 13:38:28;;;;;;;9.00;4.20;;;;;;;15.24;92.00;99047.34;12219499;19;20038;-83
2022/11/03 13:42:31;;;;;;;9.98;3.60;;;;;;;15.08;92.92;99039.50;12196778;19;20007;-84
2022/11/03 13:46:32;;;;;;;7.13;4.00;;;;;;;14.92;94.14;99031.41;12217968;19;20093;-83
2022/11/03 13:50:34;;;;;;;8.10;3.90;;;;;;;14.79;94.97;99023.81;12217104;19;20023;-83
2022/11/03 13:54:36;;;;;;;9.85;3.88;;;;;;;14.71;96.81;99018.91;12194729;19;20089;-83
2022/11/03 13:58:58;;;;;;;7.45;3.25;;;;;;;14.65;98.01;99014.56;12216853;19;20482;-83
2022/11/03 14:03:19;;;;;;;15.10;5.28;;;;;;;14.54;99.30;98992.50;12194313;19;20014;-82
2022/11/03 14:07:41;;;;;;;15.98;3.90;;;;;;;14.45;100.00;98977.59;12214925;19;20023;-82
2022/11/03 14:16:03;;;;;;;7.47;3.22;;;;;;;14.35;100.00;98950.84;12220512;19;20011;-83
2022/11/03 14:20:08;;;;;;;8.68;3.10;;;;;;;14.30;100.00;98948.13;12229679;19;20030;-83
2022/11/03 14:24:10;;;;;;;9.98;4.07;;;;;;;14.23;100.00;98938.53;12208534;19;20037;-83
2022/11/03 14:28:13;;;;;;;10.40;3.17;;;;;;;14.14;100.00;98928.09;12230905;19;20014;-81
2022/11/03 14:32:26;;;;;;;10.90;2.97;;;;;;;14.07;100.00;98927.63;12233135;19;20047;-81
2022/11/03 14:36:27;;;;;;;10.77;2.83;;;;;;;14.02;100.00;98929.63;12203804;19;20066;-84
2022/11/03 14:44:50;;;;;;;9.68;2.70;;;;;;;13.88;100.00;98918.41;12208787;19;20074;-81
2022/11/03 14:48:54;;;;;;;9.18;3.00;;;;;;;13.82;100.00;98917.66;12236426;19;20014;-81
2022/11/03 14:54:02;;;;;;;9.60;2.63;;;;;;;13.89;100.00;98908.97;12244960;19;20018;-81
2022/11/03 14:58:30;;;;;;;8.68;2.38;;;;;;;13.79;100.00;98909.09;12114207;19;2004342;-81
2022/11/03 15:02:32;;;;;;;7.38;3.30;;;;;;;13.83;100.00;98891.63;12225430;19;20124;-82
2022/11/03 15:06:34;;;;;;;7.35;2.55;;;;;;;13.84;100.00;98884.97;12213749;19;20010;-80
2022/11/03 15:10:40;;;;;;;5.80;2.50;;;;;;;13.82;100.00;98891.91;12226275;19;20018;-80
2022/11/03 15:14:45;;;;;;;6.95;2.50;;;;;;;13.77;100.00;98894.72;12200872;19;20011;-80
2022/11/03 15:18:48;;;;;;;5.72;2.45;;;;;;;13.70;100.00;98880.41;12227454;19;20014;-81
2022/11/03 15:22:50;;;;;;;11.18;2.83;;;;;;;13.70;100.00;98861.84;12219401;19;19999;-81
2022/11/03 15:27:16;;;;;;;4.28;2.28;;;;;;;13.68;100.00;98858.53;12196106;19;20014;-82
2022/11/03 15:31:18;;;;;;;8.57;2.47;;;;;;;13.72;100.00;98858.81;12217463;19;20002;-81
2022/11/03 15:35:19;;;;;;;6.85;2.90;;;;;;;13.62;100.00;98856.94;12224507;19;20028;-82
2022/11/03 15:39:21;;;;;;;12.05;4.68;;;;;;;13.55;100.00;98864.78;12210011;19;20021;-79
2022/11/03 15:43:27;;;;;;;9.00;4.45;;;;;;;13.12;100.00;98861.84;12233213;19;20020;-79
2022/11/03 15:47:29;;;;;;;11.63;4.80;;;;;;;13.05;100.00;98858.56;12233569;19;20054;-80
2022/11/03 15:51:32;;;;;;;9.32;4.35;;;;;;;12.97;100.00;98857.28;12208869;19;20010;-81
2022/11/03 15:55:34;;;;;;;10.32;4.15;;;;;;;12.92;100.00;98851.78;12254174;19;20018;-78
2022/11/03 15:59:37;;;;;;;13.82;3.90;;;;;;;12.86;100.00;98831.63;12275003;19;20018;-79
2022/11/03 16:03:41;;;;;;;7.80;3.65;;;;;;;12.77;100.00;98819.53;12228737;19;19995;-80
2022/11/03 16:07:44;;;;;;;9.38;3.22;;;;;;;12.68;100.00;98810.22;12262515;19;20002;-79
2022/11/03 16:11:45;;;;;;;12.13;4.82;;;;;;;12.64;100.00;98811.88;12206949;19;20025;-82
2022/11/03 16:15:47;;;;;;;8.73;3.85;;;;;;;12.57;100.00;98816.94;12217782;19;20007;-81
2022/11/03 16:19:49;;;;;;;7.28;3.30;;;;;;;12.49;100.00;98810.06;12217034;19;20007;-80
2022/11/03 16:23:51;;;;;;;7.23;3.00;;;;;;;12.45;100.00;98790.47;12195643;19;20038;-80
2022/11/03 16:27:52;;;;;;;13.40;3.40;;;;;;;12.41;100.00;98777.53;12221098;19;20045;-82
2022/11/03 16:31:54;;;;;;;12.70;4.10;;;;;;;12.37;100.00;98782.78;12230237;19;20048;-81
2022/11/03 16:35:56;;;;;;;10.73;4.18;;;;;;;12.35;100.00;98768.44;12207101;19;20011;-82
2022/11/03 16:39:57;;;;;;;8.32;3.78;;;;;;;12.37;100.00;98760.69;12227238;19;20022;-81
2022/11/03 16:43:59;;;;;;;12.20;3.95;;;;;;;12.37;100.00;98763.44;12222959;19;20014;-81
2022/11/03 16:48:01;;;;;;;9.40;3.85;;;;;;;12.38;100.00;98767.88;12209119;19;20830;-83
2022/11/03 16:52:03;;;;;;;;;;;;;;;12.36;100.00;98770.09;12240549;19;20011;-83
2022/11/03 16:56:05;;;;;;;8.35;3.25;;;;;;;12.37;100.00;98757.91;12230990;19;19918;-82
2022/11/03 17:00:11;;;;;;;11.15;5.15;;;;;;;12.31;100.00;98770.97;12210864;19;20011;-83
2022/11/03 17:04:16;;;;;;;7.32;3.90;;;;;;;12.27;100.00;98761.59;12228183;19;20038;-83
2022/11/03 17:08:17;;;;;;;8.30;3.83;;;;;;;12.23;100.00;98749.47;12229439;19;20025;-82
2022/11/03 17:12:39;;;;;;;11.25;4.53;;;;;;;12.18;100.00;98751.44;12188330;19;20010;-82
2022/11/03 17:16:44;;;;;;;11.60;4.95;;;;;;;12.17;100.00;98744.28;12208167;19;20006;-82
2022/11/03 17:20:45;;;;;;;12.25;5.10;;;;;;;12.14;100.00;98739.34;12196322;19;20363;-81
2022/11/03 17:24:47;;;;;;;9.45;5.47;;;;;;;12.13;100.00;98715.56;12214142;19;20018;-81
2022/11/03 17:28:49;;;;;;;10.87;5.10;;;;;;;12.11;100.00;98699.31;12210819;19;20002;-82
2022/11/03 17:32:55;;;;;;;14.13;7.53;;;;;;;12.07;100.00;98676.13;12189817;19;20287;-81
2022/11/03 17:36:56;;;;;;;14.15;5.95;;;;;;;12.02;100.00;98662.38;12220685;19;20017;-81
2022/11/03 17:40:58;;;;;;;11.43;5.55;;;;;;;11.99;100.00;98666.53;12267679;19;20038;-80
2022/11/03 17:45:00;;;;;;;17.67;6.10;;;;;;;11.98;100.00;98650.22;12244681;19;20010;-80
2022/11/03 17:49:01;;;;;;;12.60;5.85;;;;;;;11.97;100.00;98646.66;12233942;19;20108;-81
2022/11/03 17:53:03;;;;;;;11.80;5.67;;;;;;;11.94;100.00;98647.22;12229424;19;20014;-82
2022/11/03 17:57:05;;;;;;;14.33;6.27;;;;;;;11.91;100.00;98630.44;12209358;19;20037;-82
2022/11/03 18:01:09;;;;;;;14.55;5.15;;;;;;;11.91;100.00;98611.09;12230437;19;20024;-82
2022/11/03 18:05:10;;;;;;;13.60;5.25;;;;;;;11.89;100.00;98610.56;12229413;19;20014;-82
2022/11/03 18:09:19;;;;;;;11.10;5.13;;;;;;;11.85;100.00;98600.09;12213855;19;20080;-82
2022/11/03 18:13:32;;;;;;;10.75;4.88;;;;;;;11.88;100.00;98595.13;12222984;19;20362;-82
2022/11/03 18:17:35;;;;;;;9.85;5.32;;;;;;;11.90;100.00;98584.59;12244701;19;20019;-83
2022/11/03 18:21:37;;;;;;;12.88;5.43;;;;;;;11.90;100.00;98582.69;12216591;19;20003;-82
2022/11/03 18:25:39;;;;;;;10.38;4.65;;;;;;;11.91;100.00;98573.28;12243137;19;20040;-82
2022/11/03 18:29:40;;;;;;;9.73;4.43;;;;;;;11.96;100.00;98581.53;12237617;19;20011;-81
2022/11/03 18:33:43;;;;;;;11.25;4.15;;;;;;;12.01;100.00;98583.41;12217376;19;20010;-83
2022/11/03 18:37:47;;;;;;;10.75;4.50;;;;;;;12.08;100.00;98630.84;12237235;19;20002;-82
2022/11/03 18:41:48;;;;;;;5.38;3.40;;;;;;;12.11;100.00;98638.56;12216778;19;20044;-83
2022/11/03 18:45:51;;;;;;;10.45;4.88;;;;;;;12.19;100.00;98626.84;12228290;19;20044;-84
2022/11/03 18:49:53;;;;;;;9.63;4.88;;;;;;;12.16;100.00;98621.91;12225473;19;20360;-83
2022/11/03 18:53:55;;;;;;;10.45;5.53;;;;;;;12.13;100.00;98636.31;12202335;19;20006;-82
2022/11/03 18:57:56;;;;;;;13.10;6.28;;;;;;;12.10;100.00;98631.34;12222649;19;20033;-83
2022/11/03 19:01:58;;;;;;;11.25;7.18;;;;;;;12.07;100.00;98612.59;12223119;19;20361;-81
2022/11/03 19:06:00;;;;;;;13.27;8.07;;;;;;;12.07;100.00;98609.84;12202767;19;20386;-81
2022/11/03 19:10:08;;;;;;;15.02;8.05;;;;;;;12.04;100.00;98589.16;12221757;19;20501;-81
2022/11/03 19:14:18;;;;;;;14.27;6.82;;;;;;;12.04;100.00;98582.81;12211513;19;20413;-81
2022/11/03 19:18:20;;;;;;;12.48;6.78;;;;;;;12.03;100.00;98583.94;12199408;19;20010;-83